ADDS METAR Data

Data at: 0746 UTC 24 Oct 2017

METAR for:CYSJ (Saint John Arpt, NB, CN)
Text:CYSJ 240700Z 19007KT 1/4SM R05/2000FT/N FG VV001 13/13 A3021 RMK FG8 SLP234
Temperature: 13.0°C ( 55°F)
Dewpoint: 13.0°C ( 55°F) [RH = 100%]
Pressure (altimeter):30.21 inches Hg (1023.1 mb) [Sea level pressure: 1023.4 mb]
Winds:from the S (190 degrees) at 8 MPH (7 knots; 3.6 m/s)
Visibility: 0.25 sm ( 0.40 km)
Ceiling:indefinite ceiling with vertical visibility of 100 feet AGL
Clouds:obscured sky
Weather:FG (fog)